sensor_id;sensor_type;location;lat;lon;timestamp;P1;P2;P0
60266;PMS5003;46125;61.360;-149.532;2023-08-21T00:01:27;12;11;
60266;PMS5003;46125;61.360;-149.532;2023-08-21T00:03:55;10;9;
60266;PMS5003;46125;61.360;-149.532;2023-08-21T00:06:23;10;9;
60266;PMS5003;46125;61.360;-149.532;2023-08-21T00:08:52;11;9;
60266;PMS5003;46125;61.360;-149.532;2023-08-21T00:11:20;15;12;
60266;PMS5003;46125;61.360;-149.532;2023-08-21T00:13:49;13;13;
60266;PMS5003;46125;61.360;-149.532;2023-08-21T00:16:17;14;11;
60266;PMS5003;46125;61.360;-149.532;2023-08-21T00:18:46;13;13;
60266;PMS5003;46125;61.360;-149.532;2023-08-21T00:21:19;11;11;
60266;PMS5003;46125;61.360;-149.532;2023-08-21T00:23:47;13;11;
60266;PMS5003;46125;61.360;-149.532;2023-08-21T00:26:16;16;13;
60266;PMS5003;46125;61.360;-149.532;2023-08-21T00:28:44;13;12;
60266;PMS5003;46125;61.360;-149.532;2023-08-21T00:31:13;14;12;
60266;PMS5003;46125;61.360;-149.532;2023-08-21T00:33:41;13;11;
60266;PMS5003;46125;61.360;-149.532;2023-08-21T00:36:09;14;12;
60266;PMS5003;46125;61.360;-149.532;2023-08-21T00:38:38;11;11;
60266;PMS5003;46125;61.360;-149.532;2023-08-21T00:41:06;17;15;
60266;PMS5003;46125;61.360;-149.532;2023-08-21T00:43:34;18;17;
60266;PMS5003;46125;61.360;-149.532;2023-08-21T00:46:03;14;12;
60266;PMS5003;46125;61.360;-149.532;2023-08-21T00:48:33;12;11;
60266;PMS5003;46125;61.360;-149.532;2023-08-21T00:51:03;16;13;
60266;PMS5003;46125;61.360;-149.532;2023-08-21T00:53:32;15;14;
60266;PMS5003;46125;61.360;-149.532;2023-08-21T00:56:00;14;12;
60266;PMS5003;46125;61.360;-149.532;2023-08-21T00:58:29;16;13;
60266;PMS5003;46125;61.360;-149.532;2023-08-21T01:00:57;14;12;
60266;PMS5003;46125;61.360;-149.532;2023-08-21T01:03:25;17;16;
60266;PMS5003;46125;61.360;-149.532;2023-08-21T01:05:54;13;13;
60266;PMS5003;46125;61.360;-149.532;2023-08-21T01:08:25;14;13;
60266;PMS5003;46125;61.360;-149.532;2023-08-21T01:11:04;16;16;
60266;PMS5003;46125;61.360;-149.532;2023-08-21T01:13:43;23;18;
60266;PMS5003;46125;61.360;-149.532;2023-08-21T01:16:17;38;33;
60266;PMS5003;46125;61.360;-149.532;2023-08-21T01:18:46;32;30;
60266;PMS5003;46125;61.360;-149.532;2023-08-21T01:21:16;29;25;
60266;PMS5003;46125;61.360;-149.532;2023-08-21T01:23:44;32;32;
60266;PMS5003;46125;61.360;-149.532;2023-08-21T01:26:12;23;19;
60266;PMS5003;46125;61.360;-149.532;2023-08-21T01:28:40;28;27;
60266;PMS5003;46125;61.360;-149.532;2023-08-21T01:31:10;20;18;
60266;PMS5003;46125;61.360;-149.532;2023-08-21T01:33:49;21;20;
60266;PMS5003;46125;61.360;-149.532;2023-08-21T01:36:21;32;31;
60266;PMS5003;46125;61.360;-149.532;2023-08-21T01:38:50;56;50;
60266;PMS5003;46125;61.360;-149.532;2023-08-21T01:41:19;48;42;
60266;PMS5003;46125;61.360;-149.532;2023-08-21T01:43:50;25;21;
60266;PMS5003;46125;61.360;-149.532;2023-08-21T01:46:18;20;20;
60266;PMS5003;46125;61.360;-149.532;2023-08-21T01:48:48;24;21;
60266;PMS5003;46125;61.360;-149.532;2023-08-21T01:51:16;15;13;
60266;PMS5003;46125;61.360;-149.532;2023-08-21T01:53:44;33;29;
60266;PMS5003;46125;61.360;-149.532;2023-08-21T01:56:13;37;33;
60266;PMS5003;46125;61.360;-149.532;2023-08-21T01:58:41;35;33;
60266;PMS5003;46125;61.360;-149.532;2023-08-21T02:01:10;56;48;
60266;PMS5003;46125;61.360;-149.532;2023-08-21T02:03:39;21;20;
60266;PMS5003;46125;61.360;-149.532;2023-08-21T02:06:07;19;16;
60266;PMS5003;46125;61.360;-149.532;2023-08-21T02:08:36;15;11;
60266;PMS5003;46125;61.360;-149.532;2023-08-21T02:11:04;14;14;
60266;PMS5003;46125;61.360;-149.532;2023-08-21T02:13:32;12;11;
60266;PMS5003;46125;61.360;-149.532;2023-08-21T02:16:01;12;12;
60266;PMS5003;46125;61.360;-149.532;2023-08-21T02:18:29;14;12;
60266;PMS5003;46125;61.360;-149.532;2023-08-21T02:20:59;16;13;
60266;PMS5003;46125;61.360;-149.532;2023-08-21T02:23:28;16;15;
60266;PMS5003;46125;61.360;-149.532;2023-08-21T02:25:57;20;14;
60266;PMS5003;46125;61.360;-149.532;2023-08-21T02:28:25;21;16;
60266;PMS5003;46125;61.360;-149.532;2023-08-21T02:30:54;14;14;
60266;PMS5003;46125;61.360;-149.532;2023-08-21T02:33:22;14;12;
60266;PMS5003;46125;61.360;-149.532;2023-08-21T02:35:51;15;11;
60266;PMS5003;46125;61.360;-149.532;2023-08-21T02:38:19;12;11;
60266;PMS5003;46125;61.360;-149.532;2023-08-21T02:40:48;15;13;
60266;PMS5003;46125;61.360;-149.532;2023-08-21T02:43:16;16;13;
60266;PMS5003;46125;61.360;-149.532;2023-08-21T02:45:49;14;13;
60266;PMS5003;46125;61.360;-149.532;2023-08-21T02:48:17;18;14;
60266;PMS5003;46125;61.360;-149.532;2023-08-21T02:50:46;19;14;
60266;PMS5003;46125;61.360;-149.532;2023-08-21T02:53:16;15;13;
60266;PMS5003;46125;61.360;-149.532;2023-08-21T02:55:44;16;14;
60266;PMS5003;46125;61.360;-149.532;2023-08-21T02:58:17;15;15;
60266;PMS5003;46125;61.360;-149.532;2023-08-21T03:00:45;21;17;
60266;PMS5003;46125;61.360;-149.532;2023-08-21T03:03:18;16;14;
60266;PMS5003;46125;61.360;-149.532;2023-08-21T03:05:52;15;13;
60266;PMS5003;46125;61.360;-149.532;2023-08-21T03:08:20;11;11;
60266;PMS5003;46125;61.360;-149.532;2023-08-21T03:10:48;14;11;
60266;PMS5003;46125;61.360;-149.532;2023-08-21T03:13:17;17;17;
60266;PMS5003;46125;61.360;-149.532;2023-08-21T03:15:45;19;13;
60266;PMS5003;46125;61.360;-149.532;2023-08-21T03:18:13;18;13;
60266;PMS5003;46125;61.360;-149.532;2023-08-21T03:20:44;14;12;
60266;PMS5003;46125;61.360;-149.532;2023-08-21T03:23:12;12;11;
60266;PMS5003;46125;61.360;-149.532;2023-08-21T03:25:41;21;15;
60266;PMS5003;46125;61.360;-149.532;2023-08-21T03:28:14;15;12;
60266;PMS5003;46125;61.360;-149.532;2023-08-21T03:30:43;13;12;
60266;PMS5003;46125;61.360;-149.532;2023-08-21T03:33:11;17;12;
60266;PMS5003;46125;61.360;-149.532;2023-08-21T03:35:39;16;15;
60266;PMS5003;46125;61.360;-149.532;2023-08-21T03:38:08;16;12;
60266;PMS5003;46125;61.360;-149.532;2023-08-21T03:40:37;13;13;
60266;PMS5003;46125;61.360;-149.532;2023-08-21T03:43:10;16;16;
60266;PMS5003;46125;61.360;-149.532;2023-08-21T03:45:39;16;13;
60266;PMS5003;46125;61.360;-149.532;2023-08-21T03:48:07;19;16;
60266;PMS5003;46125;61.360;-149.532;2023-08-21T03:50:35;13;13;
60266;PMS5003;46125;61.360;-149.532;2023-08-21T03:53:04;13;11;
60266;PMS5003;46125;61.360;-149.532;2023-08-21T03:55:37;17;13;
60266;PMS5003;46125;61.360;-149.532;2023-08-21T03:58:06;14;12;
60266;PMS5003;46125;61.360;-149.532;2023-08-21T04:00:34;14;12;
60266;PMS5003;46125;61.360;-149.532;2023-08-21T04:03:03;16;14;
60266;PMS5003;46125;61.360;-149.532;2023-08-21T04:05:31;15;14;
60266;PMS5003;46125;61.360;-149.532;2023-08-21T04:08:00;21;19;
60266;PMS5003;46125;61.360;-149.532;2023-08-21T04:10:28;14;11;
60266;PMS5003;46125;61.360;-149.532;2023-08-21T04:13:02;12;10;
60266;PMS5003;46125;61.360;-149.532;2023-08-21T04:15:30;13;11;
60266;PMS5003;46125;61.360;-149.532;2023-08-21T04:18:05;18;15;
60266;PMS5003;46125;61.360;-149.532;2023-08-21T04:20:34;14;12;
60266;PMS5003;46125;61.360;-149.532;2023-08-21T04:23:02;11;11;
60266;PMS5003;46125;61.360;-149.532;2023-08-21T04:25:30;19;15;
60266;PMS5003;46125;61.360;-149.532;2023-08-21T04:27:59;16;12;
60266;PMS5003;46125;61.360;-149.532;2023-08-21T04:30:32;12;12;
60266;PMS5003;46125;61.360;-149.532;2023-08-21T04:33:01;13;12;
60266;PMS5003;46125;61.360;-149.532;2023-08-21T04:35:36;12;11;
60266;PMS5003;46125;61.360;-149.532;2023-08-21T04:38:05;15;12;
60266;PMS5003;46125;61.360;-149.532;2023-08-21T04:40:33;12;11;
60266;PMS5003;46125;61.360;-149.532;2023-08-21T04:43:01;12;11;
60266;PMS5003;46125;61.360;-149.532;2023-08-21T04:45:34;20;17;
60266;PMS5003;46125;61.360;-149.532;2023-08-21T04:48:04;19;15;
60266;PMS5003;46125;61.360;-149.532;2023-08-21T04:50:32;18;13;
60266;PMS5003;46125;61.360;-149.532;2023-08-21T04:53:01;10;10;
60266;PMS5003;46125;61.360;-149.532;2023-08-21T04:55:30;15;12;
60266;PMS5003;46125;61.360;-149.532;2023-08-21T04:57:58;14;13;
60266;PMS5003;46125;61.360;-149.532;2023-08-21T05:00:27;10;9;
60266;PMS5003;46125;61.360;-149.532;2023-08-21T05:02:55;17;11;
60266;PMS5003;46125;61.360;-149.532;2023-08-21T05:05:23;20;15;
60266;PMS5003;46125;61.360;-149.532;2023-08-21T05:07:52;12;9;
60266;PMS5003;46125;61.360;-149.532;2023-08-21T05:10:21;18;13;
60266;PMS5003;46125;61.360;-149.532;2023-08-21T05:12:56;13;13;
60266;PMS5003;46125;61.360;-149.532;2023-08-21T05:15:31;17;11;
60266;PMS5003;46125;61.360;-149.532;2023-08-21T05:17:59;19;16;
60266;PMS5003;46125;61.360;-149.532;2023-08-21T05:20:28;12;12;
60266;PMS5003;46125;61.360;-149.532;2023-08-21T05:22:56;19;18;
60266;PMS5003;46125;61.360;-149.532;2023-08-21T05:25:29;11;11;
60266;PMS5003;46125;61.360;-149.532;2023-08-21T05:28:00;11;11;
60266;PMS5003;46125;61.360;-149.532;2023-08-21T05:30:28;12;10;
60266;PMS5003;46125;61.360;-149.532;2023-08-21T05:32:56;17;15;
60266;PMS5003;46125;61.360;-149.532;2023-08-21T05:35:25;12;12;
60266;PMS5003;46125;61.360;-149.532;2023-08-21T05:37:53;20;16;
60266;PMS5003;46125;61.360;-149.532;2023-08-21T05:40:26;21;20;
60266;PMS5003;46125;61.360;-149.532;2023-08-21T05:42:54;15;10;
60266;PMS5003;46125;61.360;-149.532;2023-08-21T05:45:23;18;14;
60266;PMS5003;46125;61.360;-149.532;2023-08-21T05:47:51;18;14;
60266;PMS5003;46125;61.360;-149.532;2023-08-21T05:50:20;16;13;
60266;PMS5003;46125;61.360;-149.532;2023-08-21T05:52:48;18;14;
60266;PMS5003;46125;61.360;-149.532;2023-08-21T05:55:17;18;14;
60266;PMS5003;46125;61.360;-149.532;2023-08-21T05:57:50;17;14;
60266;PMS5003;46125;61.360;-149.532;2023-08-21T06:00:19;16;12;
60266;PMS5003;46125;61.360;-149.532;2023-08-21T06:02:48;17;13;
60266;PMS5003;46125;61.360;-149.532;2023-08-21T06:05:16;14;13;
60266;PMS5003;46125;61.360;-149.532;2023-08-21T06:07:45;22;18;
60266;PMS5003;46125;61.360;-149.532;2023-08-21T06:10:13;13;11;
60266;PMS5003;46125;61.360;-149.532;2023-08-21T06:12:42;22;19;
60266;PMS5003;46125;61.360;-149.532;2023-08-21T06:15:11;15;15;
60266;PMS5003;46125;61.360;-149.532;2023-08-21T06:17:39;12;11;
60266;PMS5003;46125;61.360;-149.532;2023-08-21T06:20:08;15;13;
60266;PMS5003;46125;61.360;-149.532;2023-08-21T06:22:36;17;16;
60266;PMS5003;46125;61.360;-149.532;2023-08-21T06:25:04;15;13;
60266;PMS5003;46125;61.360;-149.532;2023-08-21T06:27:33;16;15;
60266;PMS5003;46125;61.360;-149.532;2023-08-21T06:30:08;23;18;
60266;PMS5003;46125;61.360;-149.532;2023-08-21T06:32:37;18;16;
60266;PMS5003;46125;61.360;-149.532;2023-08-21T06:35:05;12;11;
60266;PMS5003;46125;61.360;-149.532;2023-08-21T06:37:33;15;14;
60266;PMS5003;46125;61.360;-149.532;2023-08-21T06:40:02;18;13;
60266;PMS5003;46125;61.360;-149.532;2023-08-21T06:42:31;13;12;
60266;PMS5003;46125;61.360;-149.532;2023-08-21T06:44:59;18;13;
60266;PMS5003;46125;61.360;-149.532;2023-08-21T06:47:27;16;16;
60266;PMS5003;46125;61.360;-149.532;2023-08-21T06:49:55;16;13;
60266;PMS5003;46125;61.360;-149.532;2023-08-21T06:52:24;16;15;
60266;PMS5003;46125;61.360;-149.532;2023-08-21T06:54:52;15;15;
60266;PMS5003;46125;61.360;-149.532;2023-08-21T06:57:20;13;12;
60266;PMS5003;46125;61.360;-149.532;2023-08-21T06:59:50;17;14;
60266;PMS5003;46125;61.360;-149.532;2023-08-21T07:02:18;19;17;
60266;PMS5003;46125;61.360;-149.532;2023-08-21T07:04:46;16;12;
60266;PMS5003;46125;61.360;-149.532;2023-08-21T07:07:14;18;14;
60266;PMS5003;46125;61.360;-149.532;2023-08-21T07:09:42;17;16;
60266;PMS5003;46125;61.360;-149.532;2023-08-21T07:12:11;17;16;
60266;PMS5003;46125;61.360;-149.532;2023-08-21T07:14:39;24;15;
60266;PMS5003;46125;61.360;-149.532;2023-08-21T07:17:08;20;16;
60266;PMS5003;46125;61.360;-149.532;2023-08-21T07:19:36;21;17;
60266;PMS5003;46125;61.360;-149.532;2023-08-21T07:22:04;16;16;
60266;PMS5003;46125;61.360;-149.532;2023-08-21T07:24:32;19;15;
60266;PMS5003;46125;61.360;-149.532;2023-08-21T07:27:01;18;15;
60266;PMS5003;46125;61.360;-149.532;2023-08-21T07:29:30;17;13;
60266;PMS5003;46125;61.360;-149.532;2023-08-21T07:31:58;20;17;
60266;PMS5003;46125;61.360;-149.532;2023-08-21T07:34:27;24;21;
60266;PMS5003;46125;61.360;-149.532;2023-08-21T07:36:56;20;17;
60266;PMS5003;46125;61.360;-149.532;2023-08-21T07:39:25;16;13;
60266;PMS5003;46125;61.360;-149.532;2023-08-21T07:41:53;22;18;
60266;PMS5003;46125;61.360;-149.532;2023-08-21T07:44:21;23;17;
60266;PMS5003;46125;61.360;-149.532;2023-08-21T07:46:49;14;12;
60266;PMS5003;46125;61.360;-149.532;2023-08-21T07:49:17;17;15;
60266;PMS5003;46125;61.360;-149.532;2023-08-21T07:51:46;16;13;
60266;PMS5003;46125;61.360;-149.532;2023-08-21T07:54:14;14;14;
60266;PMS5003;46125;61.360;-149.532;2023-08-21T07:56:42;14;12;
60266;PMS5003;46125;61.360;-149.532;2023-08-21T07:59:10;16;13;
60266;PMS5003;46125;61.360;-149.532;2023-08-21T08:01:39;14;11;
60266;PMS5003;46125;61.360;-149.532;2023-08-21T08:04:07;14;13;
60266;PMS5003;46125;61.360;-149.532;2023-08-21T08:06:35;19;15;
60266;PMS5003;46125;61.360;-149.532;2023-08-21T08:09:04;16;13;
60266;PMS5003;46125;61.360;-149.532;2023-08-21T08:11:32;20;16;
60266;PMS5003;46125;61.360;-149.532;2023-08-21T08:14:01;16;13;
60266;PMS5003;46125;61.360;-149.532;2023-08-21T08:16:29;16;15;
60266;PMS5003;46125;61.360;-149.532;2023-08-21T08:18:57;13;13;
60266;PMS5003;46125;61.360;-149.532;2023-08-21T08:21:26;17;14;
60266;PMS5003;46125;61.360;-149.532;2023-08-21T08:23:55;12;11;
60266;PMS5003;46125;61.360;-149.532;2023-08-21T08:26:24;15;10;
60266;PMS5003;46125;61.360;-149.532;2023-08-21T08:28:52;19;15;
60266;PMS5003;46125;61.360;-149.532;2023-08-21T08:31:20;18;15;
60266;PMS5003;46125;61.360;-149.532;2023-08-21T08:33:48;13;13;
60266;PMS5003;46125;61.360;-149.532;2023-08-21T08:36:16;18;14;
60266;PMS5003;46125;61.360;-149.532;2023-08-21T08:38:45;16;13;
60266;PMS5003;46125;61.360;-149.532;2023-08-21T08:41:16;21;18;
60266;PMS5003;46125;61.360;-149.532;2023-08-21T08:43:52;14;11;
60266;PMS5003;46125;61.360;-149.532;2023-08-21T08:46:24;14;13;
60266;PMS5003;46125;61.360;-149.532;2023-08-21T08:48:54;18;14;
60266;PMS5003;46125;61.360;-149.532;2023-08-21T08:51:24;13;11;
60266;PMS5003;46125;61.360;-149.532;2023-08-21T08:53:55;12;10;
60266;PMS5003;46125;61.360;-149.532;2023-08-21T08:56:26;16;13;
60266;PMS5003;46125;61.360;-149.532;2023-08-21T08:58:54;13;12;
60266;PMS5003;46125;61.360;-149.532;2023-08-21T09:01:22;16;14;
60266;PMS5003;46125;61.360;-149.532;2023-08-21T09:03:52;18;14;
60266;PMS5003;46125;61.360;-149.532;2023-08-21T09:06:20;14;13;
60266;PMS5003;46125;61.360;-149.532;2023-08-21T09:08:56;15;12;
60266;PMS5003;46125;61.360;-149.532;2023-08-21T09:11:25;21;15;
60266;PMS5003;46125;61.360;-149.532;2023-08-21T09:13:54;18;16;
60266;PMS5003;46125;61.360;-149.532;2023-08-21T09:16:23;15;15;
60266;PMS5003;46125;61.360;-149.532;2023-08-21T09:18:53;15;13;
60266;PMS5003;46125;61.360;-149.532;2023-08-21T09:21:22;14;13;
60266;PMS5003;46125;61.360;-149.532;2023-08-21T09:23:56;18;17;
60266;PMS5003;46125;61.360;-149.532;2023-08-21T09:26:25;25;16;
60266;PMS5003;46125;61.360;-149.532;2023-08-21T09:28:57;11;11;
60266;PMS5003;46125;61.360;-149.532;2023-08-21T09:31:31;16;14;
60266;PMS5003;46125;61.360;-149.532;2023-08-21T09:34:00;17;14;
60266;PMS5003;46125;61.360;-149.532;2023-08-21T09:36:30;21;19;
60266;PMS5003;46125;61.360;-149.532;2023-08-21T09:38:59;23;19;
60266;PMS5003;46125;61.360;-149.532;2023-08-21T09:41:27;17;15;
60266;PMS5003;46125;61.360;-149.532;2023-08-21T09:43:58;18;18;
60266;PMS5003;46125;61.360;-149.532;2023-08-21T09:46:27;24;20;
60266;PMS5003;46125;61.360;-149.532;2023-08-21T09:48:56;18;14;
60266;PMS5003;46125;61.360;-149.532;2023-08-21T09:51:24;14;11;
60266;PMS5003;46125;61.360;-149.532;2023-08-21T09:53:54;14;13;
60266;PMS5003;46125;61.360;-149.532;2023-08-21T09:56:24;14;13;
60266;PMS5003;46125;61.360;-149.532;2023-08-21T09:58:53;19;17;
60266;PMS5003;46125;61.360;-149.532;2023-08-21T10:01:22;18;13;
60266;PMS5003;46125;61.360;-149.532;2023-08-21T10:03:51;17;14;
60266;PMS5003;46125;61.360;-149.532;2023-08-21T10:06:24;16;14;
60266;PMS5003;46125;61.360;-149.532;2023-08-21T10:08:53;21;18;
60266;PMS5003;46125;61.360;-149.532;2023-08-21T10:11:23;15;14;
60266;PMS5003;46125;61.360;-149.532;2023-08-21T10:13:51;17;15;
60266;PMS5003;46125;61.360;-149.532;2023-08-21T10:16:20;15;12;
60266;PMS5003;46125;61.360;-149.532;2023-08-21T10:18:48;16;15;
60266;PMS5003;46125;61.360;-149.532;2023-08-21T10:21:17;17;13;
60266;PMS5003;46125;61.360;-149.532;2023-08-21T10:23:47;17;14;
60266;PMS5003;46125;61.360;-149.532;2023-08-21T10:26:18;22;18;
60266;PMS5003;46125;61.360;-149.532;2023-08-21T10:28:50;15;15;
60266;PMS5003;46125;61.360;-149.532;2023-08-21T10:31:27;15;13;
60266;PMS5003;46125;61.360;-149.532;2023-08-21T10:33:57;14;13;
60266;PMS5003;46125;61.360;-149.532;2023-08-21T10:37:05;18;13;
60266;PMS5003;46125;61.360;-149.532;2023-08-21T10:39:35;19;16;
60266;PMS5003;46125;61.360;-149.532;2023-08-21T10:42:06;19;17;
60266;PMS5003;46125;61.360;-149.532;2023-08-21T10:44:36;18;15;
60266;PMS5003;46125;61.360;-149.532;2023-08-21T10:47:15;22;21;
60266;PMS5003;46125;61.360;-149.532;2023-08-21T10:49:45;21;15;
60266;PMS5003;46125;61.360;-149.532;2023-08-21T10:52:14;17;14;
60266;PMS5003;46125;61.360;-149.532;2023-08-21T10:54:47;16;13;
60266;PMS5003;46125;61.360;-149.532;2023-08-21T10:57:17;17;15;
60266;PMS5003;46125;61.360;-149.532;2023-08-21T10:59:50;26;21;
60266;PMS5003;46125;61.360;-149.532;2023-08-21T11:02:20;21;15;
60266;PMS5003;46125;61.360;-149.532;2023-08-21T11:04:50;16;13;
60266;PMS5003;46125;61.360;-149.532;2023-08-21T11:07:18;21;15;
60266;PMS5003;46125;61.360;-149.532;2023-08-21T11:09:47;16;11;
60266;PMS5003;46125;61.360;-149.532;2023-08-21T11:12:17;15;14;
60266;PMS5003;46125;61.360;-149.532;2023-08-21T11:14:46;17;12;
60266;PMS5003;46125;61.360;-149.532;2023-08-21T11:17:15;18;14;
60266;PMS5003;46125;61.360;-149.532;2023-08-21T11:19:44;15;13;
60266;PMS5003;46125;61.360;-149.532;2023-08-21T11:22:12;14;14;
60266;PMS5003;46125;61.360;-149.532;2023-08-21T11:24:41;17;13;
60266;PMS5003;46125;61.360;-149.532;2023-08-21T11:27:11;14;13;
60266;PMS5003;46125;61.360;-149.532;2023-08-21T11:29:42;19;17;
60266;PMS5003;46125;61.360;-149.532;2023-08-21T11:32:11;19;14;
60266;PMS5003;46125;61.360;-149.532;2023-08-21T11:34:41;16;16;
60266;PMS5003;46125;61.360;-149.532;2023-08-21T11:37:15;21;17;
60266;PMS5003;46125;61.360;-149.532;2023-08-21T11:39:44;13;13;
60266;PMS5003;46125;61.360;-149.532;2023-08-21T11:42:15;23;17;
60266;PMS5003;46125;61.360;-149.532;2023-08-21T11:44:45;21;17;
60266;PMS5003;46125;61.360;-149.532;2023-08-21T11:47:17;16;14;
60266;PMS5003;46125;61.360;-149.532;2023-08-21T11:49:46;18;16;
60266;PMS5003;46125;61.360;-149.532;2023-08-21T11:52:18;18;16;
60266;PMS5003;46125;61.360;-149.532;2023-08-21T11:54:47;21;17;
60266;PMS5003;46125;61.360;-149.532;2023-08-21T11:57:17;20;15;
60266;PMS5003;46125;61.360;-149.532;2023-08-21T11:59:51;18;16;
60266;PMS5003;46125;61.360;-149.532;2023-08-21T12:02:22;18;13;
60266;PMS5003;46125;61.360;-149.532;2023-08-21T12:04:52;18;15;
60266;PMS5003;46125;61.360;-149.532;2023-08-21T12:07:21;20;15;
60266;PMS5003;46125;61.360;-149.532;2023-08-21T12:09:49;13;11;
60266;PMS5003;46125;61.360;-149.532;2023-08-21T12:12:17;16;14;
60266;PMS5003;46125;61.360;-149.532;2023-08-21T12:14:45;14;13;
60266;PMS5003;46125;61.360;-149.532;2023-08-21T12:17:13;18;16;
60266;PMS5003;46125;61.360;-149.532;2023-08-21T12:19:41;15;14;
60266;PMS5003;46125;61.360;-149.532;2023-08-21T12:22:09;20;18;
60266;PMS5003;46125;61.360;-149.532;2023-08-21T12:24:38;15;12;
60266;PMS5003;46125;61.360;-149.532;2023-08-21T12:27:06;16;13;
60266;PMS5003;46125;61.360;-149.532;2023-08-21T12:29:35;17;13;
60266;PMS5003;46125;61.360;-149.532;2023-08-21T12:32:03;14;12;
60266;PMS5003;46125;61.360;-149.532;2023-08-21T12:34:32;18;16;
60266;PMS5003;46125;61.360;-149.532;2023-08-21T12:37:00;19;15;
60266;PMS5003;46125;61.360;-149.532;2023-08-21T12:39:29;13;12;
60266;PMS5003;46125;61.360;-149.532;2023-08-21T12:41:57;19;18;
60266;PMS5003;46125;61.360;-149.532;2023-08-21T12:44:25;20;15;
60266;PMS5003;46125;61.360;-149.532;2023-08-21T12:46:54;19;12;
60266;PMS5003;46125;61.360;-149.532;2023-08-21T12:49:22;14;14;
60266;PMS5003;46125;61.360;-149.532;2023-08-21T12:51:50;17;13;
60266;PMS5003;46125;61.360;-149.532;2023-08-21T12:54:19;15;15;
60266;PMS5003;46125;61.360;-149.532;2023-08-21T12:56:47;15;12;
60266;PMS5003;46125;61.360;-149.532;2023-08-21T12:59:16;14;13;
60266;PMS5003;46125;61.360;-149.532;2023-08-21T13:01:44;19;17;
60266;PMS5003;46125;61.360;-149.532;2023-08-21T13:04:13;18;15;
60266;PMS5003;46125;61.360;-149.532;2023-08-21T13:06:42;17;15;
60266;PMS5003;46125;61.360;-149.532;2023-08-21T13:09:10;18;14;
60266;PMS5003;46125;61.360;-149.532;2023-08-21T13:11:38;15;15;
60266;PMS5003;46125;61.360;-149.532;2023-08-21T13:14:06;17;15;
60266;PMS5003;46125;61.360;-149.532;2023-08-21T13:16:34;21;17;
60266;PMS5003;46125;61.360;-149.532;2023-08-21T13:19:02;18;16;
60266;PMS5003;46125;61.360;-149.532;2023-08-21T13:21:30;15;13;
60266;PMS5003;46125;61.360;-149.532;2023-08-21T13:23:59;12;12;
60266;PMS5003;46125;61.360;-149.532;2023-08-21T13:26:27;23;17;
60266;PMS5003;46125;61.360;-149.532;2023-08-21T13:28:55;16;14;
60266;PMS5003;46125;61.360;-149.532;2023-08-21T13:31:23;17;15;
60266;PMS5003;46125;61.360;-149.532;2023-08-21T13:33:51;20;17;
60266;PMS5003;46125;61.360;-149.532;2023-08-21T13:36:19;14;12;
60266;PMS5003;46125;61.360;-149.532;2023-08-21T13:38:48;16;13;
60266;PMS5003;46125;61.360;-149.532;2023-08-21T13:41:16;14;14;
60266;PMS5003;46125;61.360;-149.532;2023-08-21T13:43:44;23;19;
60266;PMS5003;46125;61.360;-149.532;2023-08-21T13:46:12;19;15;
60266;PMS5003;46125;61.360;-149.532;2023-08-21T13:48:41;19;14;
60266;PMS5003;46125;61.360;-149.532;2023-08-21T13:51:09;24;21;
60266;PMS5003;46125;61.360;-149.532;2023-08-21T13:53:38;17;14;
60266;PMS5003;46125;61.360;-149.532;2023-08-21T13:56:06;16;13;
60266;PMS5003;46125;61.360;-149.532;2023-08-21T13:58:34;16;12;
60266;PMS5003;46125;61.360;-149.532;2023-08-21T14:01:02;17;15;
60266;PMS5003;46125;61.360;-149.532;2023-08-21T14:03:30;15;14;
60266;PMS5003;46125;61.360;-149.532;2023-08-21T14:05:59;15;13;
60266;PMS5003;46125;61.360;-149.532;2023-08-21T14:08:28;20;18;
60266;PMS5003;46125;61.360;-149.532;2023-08-21T14:10:56;18;17;
60266;PMS5003;46125;61.360;-149.532;2023-08-21T14:13:25;18;16;
60266;PMS5003;46125;61.360;-149.532;2023-08-21T14:15:53;20;18;
60266;PMS5003;46125;61.360;-149.532;2023-08-21T14:18:22;16;13;
60266;PMS5003;46125;61.360;-149.532;2023-08-21T14:20:50;18;15;
60266;PMS5003;46125;61.360;-149.532;2023-08-21T14:23:18;15;13;
60266;PMS5003;46125;61.360;-149.532;2023-08-21T14:25:46;19;17;
60266;PMS5003;46125;61.360;-149.532;2023-08-21T14:28:14;22;15;
60266;PMS5003;46125;61.360;-149.532;2023-08-21T14:30:43;18;16;
60266;PMS5003;46125;61.360;-149.532;2023-08-21T14:33:11;18;17;
60266;PMS5003;46125;61.360;-149.532;2023-08-21T14:35:39;19;17;
60266;PMS5003;46125;61.360;-149.532;2023-08-21T14:38:07;16;15;
60266;PMS5003;46125;61.360;-149.532;2023-08-21T14:40:37;18;17;
60266;PMS5003;46125;61.360;-149.532;2023-08-21T14:43:05;13;12;
60266;PMS5003;46125;61.360;-149.532;2023-08-21T14:45:34;16;14;
60266;PMS5003;46125;61.360;-149.532;2023-08-21T14:48:02;22;18;
60266;PMS5003;46125;61.360;-149.532;2023-08-21T14:50:30;21;16;
60266;PMS5003;46125;61.360;-149.532;2023-08-21T14:52:58;18;13;
60266;PMS5003;46125;61.360;-149.532;2023-08-21T14:55:26;16;15;
60266;PMS5003;46125;61.360;-149.532;2023-08-21T14:57:55;24;15;
60266;PMS5003;46125;61.360;-149.532;2023-08-21T15:00:23;19;19;
60266;PMS5003;46125;61.360;-149.532;2023-08-21T15:02:52;15;14;
60266;PMS5003;46125;61.360;-149.532;2023-08-21T15:05:20;17;14;
60266;PMS5003;46125;61.360;-149.532;2023-08-21T15:07:49;16;14;
60266;PMS5003;46125;61.360;-149.532;2023-08-21T15:10:18;18;16;
60266;PMS5003;46125;61.360;-149.532;2023-08-21T15:12:46;19;15;
60266;PMS5003;46125;61.360;-149.532;2023-08-21T15:15:15;15;13;
60266;PMS5003;46125;61.360;-149.532;2023-08-21T15:17:43;20;19;
60266;PMS5003;46125;61.360;-149.532;2023-08-21T15:20:12;17;13;
60266;PMS5003;46125;61.360;-149.532;2023-08-21T15:22:40;19;16;
60266;PMS5003;46125;61.360;-149.532;2023-08-21T15:25:09;22;20;
60266;PMS5003;46125;61.360;-149.532;2023-08-21T15:27:37;19;17;
60266;PMS5003;46125;61.360;-149.532;2023-08-21T15:30:06;16;12;
60266;PMS5003;46125;61.360;-149.532;2023-08-21T15:32:35;19;17;
60266;PMS5003;46125;61.360;-149.532;2023-08-21T15:35:04;17;15;
60266;PMS5003;46125;61.360;-149.532;2023-08-21T15:37:32;17;14;
60266;PMS5003;46125;61.360;-149.532;2023-08-21T15:40:00;17;14;
60266;PMS5003;46125;61.360;-149.532;2023-08-21T15:42:29;17;14;
60266;PMS5003;46125;61.360;-149.532;2023-08-21T15:44:57;17;15;